sensor_id;sensor_type;location;lat;lon;timestamp;pressure;altitude;pressure_sealevel;temperature;humidity
7834;BME280;3962;42.696;23.354;2023-04-15T00:02:12;94409.25;;;8.45;71.23
7834;BME280;3962;42.696;23.354;2023-04-15T00:04:39;94421.31;;;8.40;71.88
7834;BME280;3962;42.696;23.354;2023-04-15T00:07:07;94434.16;;;8.27;73.09
7834;BME280;3962;42.696;23.354;2023-04-15T00:09:34;94448.84;;;7.86;75.08
7834;BME280;3962;42.696;23.354;2023-04-15T00:12:01;94444.38;;;7.87;74.66
7834;BME280;3962;42.696;23.354;2023-04-15T00:14:28;94439.66;;;7.98;74.33
7834;BME280;3962;42.696;23.354;2023-04-15T00:16:55;94431.81;;;8.06;74.11
7834;BME280;3962;42.696;23.354;2023-04-15T00:19:22;94435.34;;;8.15;73.19
7834;BME280;3962;42.696;23.354;2023-04-15T00:21:49;94446.19;;;8.21;72.89
7834;BME280;3962;42.696;23.354;2023-04-15T00:24:17;94426.50;;;8.24;72.21
7834;BME280;3962;42.696;23.354;2023-04-15T00:26:44;94431.19;;;8.30;71.64
7834;BME280;3962;42.696;23.354;2023-04-15T00:29:11;94429.41;;;8.30;71.85
7834;BME280;3962;42.696;23.354;2023-04-15T00:31:39;94424.09;;;8.30;71.81
7834;BME280;3962;42.696;23.354;2023-04-15T00:34:06;94422.19;;;8.40;71.13
7834;BME280;3962;42.696;23.354;2023-04-15T00:36:33;94417.88;;;8.39;70.48
7834;BME280;3962;42.696;23.354;2023-04-15T00:39:01;94419.47;;;8.32;70.55
7834;BME280;3962;42.696;23.354;2023-04-15T00:41:29;94424.25;;;8.29;71.33
7834;BME280;3962;42.696;23.354;2023-04-15T00:43:58;94425.91;;;8.30;71.76
7834;BME280;3962;42.696;23.354;2023-04-15T00:46:27;94451.47;;;8.39;71.42
7834;BME280;3962;42.696;23.354;2023-04-15T00:48:56;94441.59;;;8.49;71.82
7834;BME280;3962;42.696;23.354;2023-04-15T00:51:23;94433.19;;;8.53;71.49
7834;BME280;3962;42.696;23.354;2023-04-15T00:53:50;94442.41;;;8.67;70.59
7834;BME280;3962;42.696;23.354;2023-04-15T00:56:18;94421.19;;;8.67;70.53
7834;BME280;3962;42.696;23.354;2023-04-15T00:58:47;94430.91;;;8.58;69.95
7834;BME280;3962;42.696;23.354;2023-04-15T01:01:14;94435.69;;;8.55;71.44
7834;BME280;3962;42.696;23.354;2023-04-15T01:03:41;94437.66;;;8.53;71.69
7834;BME280;3962;42.696;23.354;2023-04-15T01:06:08;94439.13;;;8.47;73.18
7834;BME280;3962;42.696;23.354;2023-04-15T01:08:35;94438.81;;;8.50;74.64
7834;BME280;3962;42.696;23.354;2023-04-15T01:11:02;94434.88;;;8.54;75.33
7834;BME280;3962;42.696;23.354;2023-04-15T01:13:29;94448.47;;;8.59;75.23
7834;BME280;3962;42.696;23.354;2023-04-15T01:15:58;94444.44;;;8.47;75.91
7834;BME280;3962;42.696;23.354;2023-04-15T01:18:27;94447.16;;;8.38;75.91
7834;BME280;3962;42.696;23.354;2023-04-15T01:20:54;94439.69;;;8.33;76.60
7834;BME280;3962;42.696;23.354;2023-04-15T01:23:22;94437.94;;;8.24;76.79
7834;BME280;3962;42.696;23.354;2023-04-15T01:25:50;94430.81;;;8.25;76.49
7834;BME280;3962;42.696;23.354;2023-04-15T01:28:18;94422.72;;;8.26;77.32
7834;BME280;3962;42.696;23.354;2023-04-15T01:30:45;94415.75;;;8.25;77.29
7834;BME280;3962;42.696;23.354;2023-04-15T01:33:12;94421.97;;;8.16;77.24
7834;BME280;3962;42.696;23.354;2023-04-15T01:35:40;94421.97;;;8.16;78.03
7834;BME280;3962;42.696;23.354;2023-04-15T01:38:09;94423.56;;;8.27;77.60
7834;BME280;3962;42.696;23.354;2023-04-15T01:40:36;94426.50;;;8.24;78.35
7834;BME280;3962;42.696;23.354;2023-04-15T01:43:05;94425.75;;;8.31;77.85
7834;BME280;3962;42.696;23.354;2023-04-15T01:45:32;94437.22;;;8.40;77.63
7834;BME280;3962;42.696;23.354;2023-04-15T01:47:58;94432.34;;;8.27;77.63
7834;BME280;3962;42.696;23.354;2023-04-15T01:50:25;94441.41;;;8.25;77.51
7834;BME280;3962;42.696;23.354;2023-04-15T01:52:52;94451.31;;;8.05;78.10
7834;BME280;3962;42.696;23.354;2023-04-15T01:55:19;94448.16;;;7.84;79.27
7834;BME280;3962;42.696;23.354;2023-04-15T01:57:46;94461.00;;;7.62;79.93
7834;BME280;3962;42.696;23.354;2023-04-15T02:00:15;94451.16;;;7.54;80.03
7834;BME280;3962;42.696;23.354;2023-04-15T02:02:42;94455.25;;;7.49;81.29
7834;BME280;3962;42.696;23.354;2023-04-15T02:05:09;94448.75;;;7.43;80.80
7834;BME280;3962;42.696;23.354;2023-04-15T02:07:35;94459.06;;;7.37;81.29
7834;BME280;3962;42.696;23.354;2023-04-15T02:10:03;94455.50;;;7.28;80.91
7834;BME280;3962;42.696;23.354;2023-04-15T02:12:29;94455.69;;;6.91;82.07
7834;BME280;3962;42.696;23.354;2023-04-15T02:14:56;94452.00;;;6.65;83.15
7834;BME280;3962;42.696;23.354;2023-04-15T02:17:24;94451.06;;;6.66;82.88
7834;BME280;3962;42.696;23.354;2023-04-15T02:19:51;94451.47;;;6.61;83.28
7834;BME280;3962;42.696;23.354;2023-04-15T02:22:18;94435.75;;;6.60;82.49
7834;BME280;3962;42.696;23.354;2023-04-15T02:24:45;94446.09;;;6.53;83.09
7834;BME280;3962;42.696;23.354;2023-04-15T02:27:15;94444.28;;;6.44;82.92
7834;BME280;3962;42.696;23.354;2023-04-15T02:29:43;94432.59;;;6.37;83.70
7834;BME280;3962;42.696;23.354;2023-04-15T02:32:10;94437.63;;;6.31;84.18
7834;BME280;3962;42.696;23.354;2023-04-15T02:34:38;94442.22;;;6.29;84.19
7834;BME280;3962;42.696;23.354;2023-04-15T02:37:07;94447.78;;;6.35;83.50
7834;BME280;3962;42.696;23.354;2023-04-15T02:39:34;94440.28;;;6.31;83.24
7834;BME280;3962;42.696;23.354;2023-04-15T02:42:01;94446.28;;;6.14;84.02
7834;BME280;3962;42.696;23.354;2023-04-15T02:44:28;94452.41;;;6.05;85.00
7834;BME280;3962;42.696;23.354;2023-04-15T02:46:55;94450.88;;;6.12;84.57
7834;BME280;3962;42.696;23.354;2023-04-15T02:49:22;94437.94;;;6.09;84.71
7834;BME280;3962;42.696;23.354;2023-04-15T02:51:51;94464.34;;;6.09;84.53
7834;BME280;3962;42.696;23.354;2023-04-15T02:54:18;94464.22;;;6.10;85.11
7834;BME280;3962;42.696;23.354;2023-04-15T02:56:45;94453.53;;;5.93;82.81
7834;BME280;3962;42.696;23.354;2023-04-15T02:59:12;94462.69;;;5.79;82.87
7834;BME280;3962;42.696;23.354;2023-04-15T03:01:39;94460.31;;;5.67;83.09
7834;BME280;3962;42.696;23.354;2023-04-15T03:04:06;94462.66;;;5.51;83.24
7834;BME280;3962;42.696;23.354;2023-04-15T03:06:33;94465.25;;;5.41;83.22
7834;BME280;3962;42.696;23.354;2023-04-15T03:09:01;94473.34;;;5.40;82.67
7834;BME280;3962;42.696;23.354;2023-04-15T03:11:28;94464.41;;;5.31;81.44
7834;BME280;3962;42.696;23.354;2023-04-15T03:13:56;94459.53;;;5.17;81.15
7834;BME280;3962;42.696;23.354;2023-04-15T03:16:22;94472.31;;;5.12;81.85
7834;BME280;3962;42.696;23.354;2023-04-15T03:18:49;94476.75;;;5.21;80.97
7834;BME280;3962;42.696;23.354;2023-04-15T03:21:16;94470.22;;;5.25;80.68
7834;BME280;3962;42.696;23.354;2023-04-15T03:23:44;94468.44;;;5.26;79.74
7834;BME280;3962;42.696;23.354;2023-04-15T03:26:25;94475.09;;;5.30;80.15
7834;BME280;3962;42.696;23.354;2023-04-15T03:28:52;94479.56;;;5.39;79.45
7834;BME280;3962;42.696;23.354;2023-04-15T03:31:19;94486.84;;;5.56;80.06
7834;BME280;3962;42.696;23.354;2023-04-15T03:33:46;94492.09;;;5.65;79.32
7834;BME280;3962;42.696;23.354;2023-04-15T03:36:13;94499.91;;;5.76;78.99
7834;BME280;3962;42.696;23.354;2023-04-15T03:38:40;94493.84;;;5.85;77.11
7834;BME280;3962;42.696;23.354;2023-04-15T03:41:06;94508.00;;;5.84;77.51
7834;BME280;3962;42.696;23.354;2023-04-15T03:43:35;94507.84;;;5.95;78.37
7834;BME280;3962;42.696;23.354;2023-04-15T03:46:01;94513.44;;;5.92;77.33
7834;BME280;3962;42.696;23.354;2023-04-15T03:48:28;94516.06;;;5.92;77.62
7834;BME280;3962;42.696;23.354;2023-04-15T03:50:55;94515.53;;;5.98;77.57
7834;BME280;3962;42.696;23.354;2023-04-15T03:53:22;94518.97;;;5.99;78.02
7834;BME280;3962;42.696;23.354;2023-04-15T03:55:49;94519.97;;;5.98;77.74
7834;BME280;3962;42.696;23.354;2023-04-15T03:58:16;94518.56;;;6.13;77.77
7834;BME280;3962;42.696;23.354;2023-04-15T04:00:44;94510.91;;;6.19;77.47
7834;BME280;3962;42.696;23.354;2023-04-15T04:03:11;94506.47;;;6.20;78.07
7834;BME280;3962;42.696;23.354;2023-04-15T04:05:38;94512.72;;;6.28;77.83
7834;BME280;3962;42.696;23.354;2023-04-15T04:08:06;94517.88;;;6.39;77.28
7834;BME280;3962;42.696;23.354;2023-04-15T04:10:33;94506.44;;;6.39;77.83
7834;BME280;3962;42.696;23.354;2023-04-15T04:12:59;94515.75;;;6.52;77.07
7834;BME280;3962;42.696;23.354;2023-04-15T04:15:26;94519.91;;;6.55;76.88
7834;BME280;3962;42.696;23.354;2023-04-15T04:17:54;94517.69;;;6.69;77.34
7834;BME280;3962;42.696;23.354;2023-04-15T04:20:21;94526.72;;;6.67;76.53
7834;BME280;3962;42.696;23.354;2023-04-15T04:22:48;94532.81;;;6.67;76.06
7834;BME280;3962;42.696;23.354;2023-04-15T04:25:15;94528.38;;;6.68;76.69
7834;BME280;3962;42.696;23.354;2023-04-15T04:27:42;94520.56;;;6.85;76.37
7834;BME280;3962;42.696;23.354;2023-04-15T04:30:10;94522.06;;;6.88;76.85
7834;BME280;3962;42.696;23.354;2023-04-15T04:32:37;94522.00;;;6.70;76.56
7834;BME280;3962;42.696;23.354;2023-04-15T04:35:06;94528.63;;;6.74;77.86
7834;BME280;3962;42.696;23.354;2023-04-15T04:37:33;94529.31;;;6.86;76.77
7834;BME280;3962;42.696;23.354;2023-04-15T04:39:59;94531.38;;;6.92;77.30
7834;BME280;3962;42.696;23.354;2023-04-15T04:42:26;94536.34;;;7.04;76.82
7834;BME280;3962;42.696;23.354;2023-04-15T04:44:53;94533.56;;;7.06;76.62
7834;BME280;3962;42.696;23.354;2023-04-15T04:47:20;94540.50;;;7.16;78.00
7834;BME280;3962;42.696;23.354;2023-04-15T04:49:46;94541.53;;;7.32;76.68
7834;BME280;3962;42.696;23.354;2023-04-15T04:52:15;94551.78;;;7.45;75.65
7834;BME280;3962;42.696;23.354;2023-04-15T04:54:42;94553.16;;;7.49;74.69
7834;BME280;3962;42.696;23.354;2023-04-15T04:57:08;94551.09;;;7.43;74.97
7834;BME280;3962;42.696;23.354;2023-04-15T04:59:37;94549.56;;;7.40;74.95
7834;BME280;3962;42.696;23.354;2023-04-15T05:02:04;94557.06;;;7.45;75.33
7834;BME280;3962;42.696;23.354;2023-04-15T05:04:32;94560.84;;;7.42;75.79
7834;BME280;3962;42.696;23.354;2023-04-15T05:06:59;94563.50;;;7.42;76.02
7834;BME280;3962;42.696;23.354;2023-04-15T05:09:27;94562.94;;;7.39;75.90
7834;BME280;3962;42.696;23.354;2023-04-15T05:11:56;94572.56;;;7.40;75.78
7834;BME280;3962;42.696;23.354;2023-04-15T05:14:23;94580.09;;;7.44;76.61
7834;BME280;3962;42.696;23.354;2023-04-15T05:16:50;94582.41;;;7.47;76.31
7834;BME280;3962;42.696;23.354;2023-04-15T05:19:17;94586.84;;;7.56;75.36
7834;BME280;3962;42.696;23.354;2023-04-15T05:21:44;94584.44;;;7.63;75.59
7834;BME280;3962;42.696;23.354;2023-04-15T05:24:10;94579.41;;;7.69;75.47
7834;BME280;3962;42.696;23.354;2023-04-15T05:26:39;94586.81;;;7.66;76.28
7834;BME280;3962;42.696;23.354;2023-04-15T05:29:06;94583.94;;;7.77;75.36
7834;BME280;3962;42.696;23.354;2023-04-15T05:31:33;94592.47;;;7.98;76.24
7834;BME280;3962;42.696;23.354;2023-04-15T05:33:59;94587.03;;;8.44;74.87
7834;BME280;3962;42.696;23.354;2023-04-15T05:36:26;94581.91;;;9.54;78.62
7834;BME280;3962;42.696;23.354;2023-04-15T05:38:54;94579.16;;;10.05;74.89
7834;BME280;3962;42.696;23.354;2023-04-15T05:41:21;94582.00;;;9.70;69.29
7834;BME280;3962;42.696;23.354;2023-04-15T05:43:49;94574.69;;;9.72;68.54
7834;BME280;3962;42.696;23.354;2023-04-15T05:46:15;94587.84;;;9.81;69.35
7834;BME280;3962;42.696;23.354;2023-04-15T05:48:42;94583.50;;;9.72;67.70
7834;BME280;3962;42.696;23.354;2023-04-15T05:51:09;94577.50;;;10.04;72.16
7834;BME280;3962;42.696;23.354;2023-04-15T05:53:36;94583.28;;;11.44;69.65
7834;BME280;3962;42.696;23.354;2023-04-15T05:56:03;94587.13;;;11.18;66.09
7834;BME280;3962;42.696;23.354;2023-04-15T05:58:30;94597.59;;;11.67;66.30
7834;BME280;3962;42.696;23.354;2023-04-15T06:00:59;94605.44;;;11.61;64.80
7834;BME280;3962;42.696;23.354;2023-04-15T06:03:25;94606.28;;;11.21;63.55
7834;BME280;3962;42.696;23.354;2023-04-15T06:05:52;94599.44;;;10.95;63.79
7834;BME280;3962;42.696;23.354;2023-04-15T06:08:20;94599.91;;;10.59;63.91
7834;BME280;3962;42.696;23.354;2023-04-15T06:10:47;94612.13;;;10.28;65.43
7834;BME280;3962;42.696;23.354;2023-04-15T06:13:14;94615.25;;;10.15;65.96
7834;BME280;3962;42.696;23.354;2023-04-15T06:15:41;94607.41;;;10.06;66.37
7834;BME280;3962;42.696;23.354;2023-04-15T06:18:09;94600.97;;;9.83;66.95
7834;BME280;3962;42.696;23.354;2023-04-15T06:20:37;94618.84;;;9.73;67.22
7834;BME280;3962;42.696;23.354;2023-04-15T06:23:04;94620.22;;;9.77;67.54
7834;BME280;3962;42.696;23.354;2023-04-15T06:25:31;94627.84;;;9.80;67.34
7834;BME280;3962;42.696;23.354;2023-04-15T06:27:58;94627.34;;;9.76;66.80
7834;BME280;3962;42.696;23.354;2023-04-15T06:30:25;94624.81;;;9.75;67.30
7834;BME280;3962;42.696;23.354;2023-04-15T06:32:52;94632.16;;;9.81;67.46
7834;BME280;3962;42.696;23.354;2023-04-15T06:35:20;94629.06;;;9.93;67.02
7834;BME280;3962;42.696;23.354;2023-04-15T06:37:47;94634.69;;;10.08;66.53
7834;BME280;3962;42.696;23.354;2023-04-15T06:40:14;94640.13;;;10.06;66.22
7834;BME280;3962;42.696;23.354;2023-04-15T06:42:41;94639.34;;;10.22;66.06
7834;BME280;3962;42.696;23.354;2023-04-15T06:45:09;94637.25;;;10.33;65.43
7834;BME280;3962;42.696;23.354;2023-04-15T06:47:36;94640.91;;;10.40;65.48
7834;BME280;3962;42.696;23.354;2023-04-15T06:50:03;94640.31;;;10.62;64.55
7834;BME280;3962;42.696;23.354;2023-04-15T06:52:32;94655.16;;;10.73;63.68
7834;BME280;3962;42.696;23.354;2023-04-15T06:54:59;94648.47;;;10.69;64.07
7834;BME280;3962;42.696;23.354;2023-04-15T06:57:26;94649.31;;;10.69;63.79
7834;BME280;3962;42.696;23.354;2023-04-15T06:59:54;94650.84;;;10.88;63.83
7834;BME280;3962;42.696;23.354;2023-04-15T07:02:21;94640.38;;;10.86;62.99
7834;BME280;3962;42.696;23.354;2023-04-15T07:04:48;94640.84;;;10.82;63.73
7834;BME280;3962;42.696;23.354;2023-04-15T07:07:15;94636.91;;;11.01;62.93
7834;BME280;3962;42.696;23.354;2023-04-15T07:09:43;94638.56;;;11.10;63.03
7834;BME280;3962;42.696;23.354;2023-04-15T07:12:10;94644.22;;;11.31;62.44
7834;BME280;3962;42.696;23.354;2023-04-15T07:14:37;94649.16;;;12.37;59.96
7834;BME280;3962;42.696;23.354;2023-04-15T07:17:04;94642.44;;;13.10;57.03
7834;BME280;3962;42.696;23.354;2023-04-15T07:19:31;94647.16;;;13.30;55.96
7834;BME280;3962;42.696;23.354;2023-04-15T07:21:58;94639.84;;;13.24;56.98
7834;BME280;3962;42.696;23.354;2023-04-15T07:24:24;94648.03;;;13.23;56.57
7834;BME280;3962;42.696;23.354;2023-04-15T07:26:53;94649.63;;;13.09;56.91
7834;BME280;3962;42.696;23.354;2023-04-15T07:29:20;94652.44;;;13.38;57.31
7834;BME280;3962;42.696;23.354;2023-04-15T07:31:47;94647.88;;;14.13;55.64
7834;BME280;3962;42.696;23.354;2023-04-15T07:34:14;94650.88;;;14.32;54.56
7834;BME280;3962;42.696;23.354;2023-04-15T07:36:46;94648.84;;;13.83;55.66
7834;BME280;3962;42.696;23.354;2023-04-15T07:39:15;94648.03;;;14.69;53.72
7834;BME280;3962;42.696;23.354;2023-04-15T07:41:42;94646.47;;;16.21;50.08
7834;BME280;3962;42.696;23.354;2023-04-15T07:44:10;94647.56;;;17.08;47.03
7834;BME280;3962;42.696;23.354;2023-04-15T07:46:37;94635.28;;;17.65;45.21
7834;BME280;3962;42.696;23.354;2023-04-15T07:49:04;94647.50;;;18.13;44.58
7834;BME280;3962;42.696;23.354;2023-04-15T07:51:31;94651.47;;;18.50;43.39
7834;BME280;3962;42.696;23.354;2023-04-15T07:53:58;94662.84;;;18.19;43.45
7834;BME280;3962;42.696;23.354;2023-04-15T07:56:25;94666.25;;;18.91;42.90
7834;BME280;3962;42.696;23.354;2023-04-15T07:58:52;94661.53;;;19.37;40.48
7834;BME280;3962;42.696;23.354;2023-04-15T08:01:20;94658.09;;;19.17;41.08
7834;BME280;3962;42.696;23.354;2023-04-15T08:03:47;94673.56;;;19.41;40.98
7834;BME280;3962;42.696;23.354;2023-04-15T08:06:14;94674.78;;;19.82;40.36
7834;BME280;3962;42.696;23.354;2023-04-15T08:08:42;94665.66;;;20.08;39.40
7834;BME280;3962;42.696;23.354;2023-04-15T08:11:09;94667.22;;;20.46;38.41
7834;BME280;3962;42.696;23.354;2023-04-15T08:13:36;94658.50;;;20.44;38.58
7834;BME280;3962;42.696;23.354;2023-04-15T08:16:15;94665.75;;;19.95;39.06
7834;BME280;3962;42.696;23.354;2023-04-15T08:18:45;94656.88;;;19.88;39.37
7834;BME280;3962;42.696;23.354;2023-04-15T08:21:12;94658.28;;;20.21;39.06
7834;BME280;3962;42.696;23.354;2023-04-15T08:23:39;94656.75;;;20.01;39.60
7834;BME280;3962;42.696;23.354;2023-04-15T08:26:07;94655.63;;;19.90;40.26
7834;BME280;3962;42.696;23.354;2023-04-15T08:28:34;94667.16;;;19.66;40.44
7834;BME280;3962;42.696;23.354;2023-04-15T08:31:01;94663.06;;;19.57;40.32
7834;BME280;3962;42.696;23.354;2023-04-15T08:33:28;94658.81;;;19.43;40.86
7834;BME280;3962;42.696;23.354;2023-04-15T08:35:57;94660.16;;;19.59;41.46
7834;BME280;3962;42.696;23.354;2023-04-15T08:38:24;94659.38;;;19.08;41.90
7834;BME280;3962;42.696;23.354;2023-04-15T08:40:51;94640.69;;;19.19;42.31
7834;BME280;3962;42.696;23.354;2023-04-15T08:43:21;94638.72;;;18.76;41.59
7834;BME280;3962;42.696;23.354;2023-04-15T08:45:51;94639.78;;;18.69;41.93
7834;BME280;3962;42.696;23.354;2023-04-15T08:48:18;94640.47;;;18.58;41.30
7834;BME280;3962;42.696;23.354;2023-04-15T08:50:46;94653.47;;;18.74;41.03
7834;BME280;3962;42.696;23.354;2023-04-15T08:53:15;94642.94;;;19.60;39.00
7834;BME280;3962;42.696;23.354;2023-04-15T08:55:43;94638.00;;;19.50;38.21
7834;BME280;3962;42.696;23.354;2023-04-15T08:58:11;94639.81;;;19.63;38.80
7834;BME280;3962;42.696;23.354;2023-04-15T09:00:39;94631.59;;;19.51;38.08
7834;BME280;3962;42.696;23.354;2023-04-15T09:03:07;94634.19;;;18.70;39.43
7834;BME280;3962;42.696;23.354;2023-04-15T09:05:34;94623.53;;;19.01;39.53
7834;BME280;3962;42.696;23.354;2023-04-15T09:08:01;94626.69;;;19.35;38.65
7834;BME280;3962;42.696;23.354;2023-04-15T09:10:30;94620.28;;;19.67;38.14
7834;BME280;3962;42.696;23.354;2023-04-15T09:12:58;94627.09;;;18.88;39.06
7834;BME280;3962;42.696;23.354;2023-04-15T09:15:25;94619.97;;;18.31;41.17
7834;BME280;3962;42.696;23.354;2023-04-15T09:17:54;94611.91;;;18.18;40.88
7834;BME280;3962;42.696;23.354;2023-04-15T09:20:21;94611.06;;;18.37;40.26
7834;BME280;3962;42.696;23.354;2023-04-15T09:22:49;94600.59;;;18.79;39.46
7834;BME280;3962;42.696;23.354;2023-04-15T09:25:30;94609.84;;;18.20;39.02
7834;BME280;3962;42.696;23.354;2023-04-15T09:27:58;94605.69;;;18.17;39.61
7834;BME280;3962;42.696;23.354;2023-04-15T09:30:26;94617.28;;;17.92;39.67
7834;BME280;3962;42.696;23.354;2023-04-15T09:32:55;94615.03;;;18.02;38.86
7834;BME280;3962;42.696;23.354;2023-04-15T09:35:23;94617.69;;;18.34;39.25
7834;BME280;3962;42.696;23.354;2023-04-15T09:37:52;94608.34;;;18.43;38.28
7834;BME280;3962;42.696;23.354;2023-04-15T09:40:34;94608.78;;;18.08;39.03
7834;BME280;3962;42.696;23.354;2023-04-15T09:43:01;94613.34;;;18.14;39.06
7834;BME280;3962;42.696;23.354;2023-04-15T09:45:30;94608.34;;;18.24;38.60
7834;BME280;3962;42.696;23.354;2023-04-15T09:47:57;94606.09;;;18.21;38.28
7834;BME280;3962;42.696;23.354;2023-04-15T09:50:26;94605.91;;;17.70;38.52
7834;BME280;3962;42.696;23.354;2023-04-15T09:52:54;94615.22;;;17.68;38.85
7834;BME280;3962;42.696;23.354;2023-04-15T09:55:21;94611.00;;;17.26;39.48
7834;BME280;3962;42.696;23.354;2023-04-15T09:57:50;94609.94;;;17.21;39.86
7834;BME280;3962;42.696;23.354;2023-04-15T10:00:16;94611.28;;;17.44;39.46
7834;BME280;3962;42.696;23.354;2023-04-15T10:02:44;94602.59;;;17.75;39.18
7834;BME280;3962;42.696;23.354;2023-04-15T10:05:14;94607.53;;;18.17;38.12
7834;BME280;3962;42.696;23.354;2023-04-15T10:07:42;94603.41;;;18.08;38.46
7834;BME280;3962;42.696;23.354;2023-04-15T10:10:10;94608.22;;;17.80;37.72
7834;BME280;3962;42.696;23.354;2023-04-15T10:12:38;94602.19;;;18.04;37.98
7834;BME280;3962;42.696;23.354;2023-04-15T10:15:14;94601.13;;;18.24;36.72
7834;BME280;3962;42.696;23.354;2023-04-15T10:17:43;94590.56;;;18.16;36.91
7834;BME280;3962;42.696;23.354;2023-04-15T10:20:11;94582.94;;;18.00;37.55
7834;BME280;3962;42.696;23.354;2023-04-15T10:22:39;94589.34;;;18.06;37.12
7834;BME280;3962;42.696;23.354;2023-04-15T10:25:08;94588.06;;;18.34;36.52
7834;BME280;3962;42.696;23.354;2023-04-15T10:27:36;94582.91;;;18.89;35.48
7834;BME280;3962;42.696;23.354;2023-04-15T10:30:06;94572.44;;;19.06;35.11
7834;BME280;3962;42.696;23.354;2023-04-15T10:32:35;94566.31;;;19.36;34.73
7834;BME280;3962;42.696;23.354;2023-04-15T10:35:03;94571.78;;;19.23;35.29
7834;BME280;3962;42.696;23.354;2023-04-15T10:37:35;94561.72;;;18.99;36.78
7834;BME280;3962;42.696;23.354;2023-04-15T10:40:27;94570.84;;;18.98;35.17
7834;BME280;3962;42.696;23.354;2023-04-15T10:42:57;94559.94;;;18.81;35.28
7834;BME280;3962;42.696;23.354;2023-04-15T10:45:26;94565.09;;;18.82;34.93
7834;BME280;3962;42.696;23.354;2023-04-15T10:48:01;94558.78;;;18.57;35.70
7834;BME280;3962;42.696;23.354;2023-04-15T10:50:29;94557.88;;;18.83;35.21
7834;BME280;3962;42.696;23.354;2023-04-15T10:52:57;94559.78;;;18.69;35.29
7834;BME280;3962;42.696;23.354;2023-04-15T10:55:25;94553.88;;;18.41;35.37
7834;BME280;3962;42.696;23.354;2023-04-15T10:57:54;94562.16;;;18.40;35.95
7834;BME280;3962;42.696;23.354;2023-04-15T11:00:25;94558.41;;;18.41;35.58
7834;BME280;3962;42.696;23.354;2023-04-15T11:02:53;94567.56;;;18.33;35.34
7834;BME280;3962;42.696;23.354;2023-04-15T11:05:48;94563.59;;;18.42;35.33
7834;BME280;3962;42.696;23.354;2023-04-15T11:08:16;94555.56;;;18.29;35.80
7834;BME280;3962;42.696;23.354;2023-04-15T11:10:52;94553.13;;;18.02;36.21
7834;BME280;3962;42.696;23.354;2023-04-15T11:13:22;94558.25;;;18.16;36.15
7834;BME280;3962;42.696;23.354;2023-04-15T11:15:50;94552.66;;;18.11;35.66
7834;BME280;3962;42.696;23.354;2023-04-15T11:18:18;94559.06;;;18.36;35.35
7834;BME280;3962;42.696;23.354;2023-04-15T11:20:49;94551.19;;;18.41;35.06
7834;BME280;3962;42.696;23.354;2023-04-15T11:23:17;94546.88;;;18.34;35.37
7834;BME280;3962;42.696;23.354;2023-04-15T11:25:44;94545.59;;;18.43;35.39
7834;BME280;3962;42.696;23.354;2023-04-15T11:28:12;94533.38;;;18.84;35.41
7834;BME280;3962;42.696;23.354;2023-04-15T11:30:39;94533.69;;;18.63;35.20
7834;BME280;3962;42.696;23.354;2023-04-15T11:33:09;94536.78;;;18.60;35.41
7834;BME280;3962;42.696;23.354;2023-04-15T11:35:36;94538.59;;;18.79;35.02
7834;BME280;3962;42.696;23.354;2023-04-15T11:38:09;94548.56;;;18.72;34.58
7834;BME280;3962;42.696;23.354;2023-04-15T11:40:37;94543.78;;;19.18;34.16
7834;BME280;3962;42.696;23.354;2023-04-15T11:43:05;94548.19;;;19.68;33.08
7834;BME280;3962;42.696;23.354;2023-04-15T11:45:32;94550.91;;;19.92;32.70
7834;BME280;3962;42.696;23.354;2023-04-15T11:48:07;94540.47;;;20.20;32.36
7834;BME280;3962;42.696;23.354;2023-04-15T11:50:36;94542.59;;;20.18;32.27
7834;BME280;3962;42.696;23.354;2023-04-15T11:53:09;94542.97;;;20.22;32.59
7834;BME280;3962;42.696;23.354;2023-04-15T11:55:43;94542.50;;;19.82;32.50
7834;BME280;3962;42.696;23.354;2023-04-15T11:58:13;94538.34;;;19.55;32.79
7834;BME280;3962;42.696;23.354;2023-04-15T12:00:45;94526.66;;;19.37;33.06
7834;BME280;3962;42.696;23.354;2023-04-15T12:03:18;94537.19;;;19.69;32.07
7834;BME280;3962;42.696;23.354;2023-04-15T12:06:18;94539.97;;;19.63;32.68
7834;BME280;3962;42.696;23.354;2023-04-15T12:09:15;94533.13;;;19.60;29.52
7834;BME280;3962;42.696;23.354;2023-04-15T12:11:44;94533.16;;;19.54;28.38
7834;BME280;3962;42.696;23.354;2023-04-15T12:14:23;94523.41;;;19.28;29.01
7834;BME280;3962;42.696;23.354;2023-04-15T12:16:52;94528.22;;;19.75;29.28
7834;BME280;3962;42.696;23.354;2023-04-15T12:19:22;94518.63;;;19.30;31.46
7834;BME280;3962;42.696;23.354;2023-04-15T12:21:50;94517.06;;;19.10;31.84
7834;BME280;3962;42.696;23.354;2023-04-15T12:24:20;94520.16;;;19.13;32.31
7834;BME280;3962;42.696;23.354;2023-04-15T12:26:49;94517.72;;;18.99;32.05
7834;BME280;3962;42.696;23.354;2023-04-15T12:29:16;94521.84;;;19.08;31.93
7834;BME280;3962;42.696;23.354;2023-04-15T12:31:51;94515.13;;;18.86;32.44
7834;BME280;3962;42.696;23.354;2023-04-15T12:34:25;94523.66;;;19.20;32.05
7834;BME280;3962;42.696;23.354;2023-04-15T12:36:52;94529.47;;;19.48;31.28
7834;BME280;3962;42.696;23.354;2023-04-15T12:39:22;94525.47;;;18.89;31.66
7834;BME280;3962;42.696;23.354;2023-04-15T12:41:49;94525.81;;;18.99;32.45
7834;BME280;3962;42.696;23.354;2023-04-15T12:44:16;94523.91;;;19.12;31.62
7834;BME280;3962;42.696;23.354;2023-04-15T12:46:44;94528.53;;;19.36;31.27
7834;BME280;3962;42.696;23.354;2023-04-15T12:49:11;94520.53;;;18.86;30.32
7834;BME280;3962;42.696;23.354;2023-04-15T12:51:39;94521.31;;;18.93;30.62
7834;BME280;3962;42.696;23.354;2023-04-15T12:54:05;94527.63;;;18.74;30.98
7834;BME280;3962;42.696;23.354;2023-04-15T12:56:34;94525.06;;;18.92;31.00
7834;BME280;3962;42.696;23.354;2023-04-15T12:59:02;94533.00;;;18.81;30.42
7834;BME280;3962;42.696;23.354;2023-04-15T13:01:29;94529.91;;;18.77;30.58
7834;BME280;3962;42.696;23.354;2023-04-15T13:03:55;94523.44;;;19.22;30.81
7834;BME280;3962;42.696;23.354;2023-04-15T13:06:22;94527.97;;;19.28;31.26
7834;BME280;3962;42.696;23.354;2023-04-15T13:08:49;94530.06;;;19.26;31.62
7834;BME280;3962;42.696;23.354;2023-04-15T13:11:19;94528.66;;;19.10;31.70
7834;BME280;3962;42.696;23.354;2023-04-15T13:13:47;94524.06;;;19.24;30.98
7834;BME280;3962;42.696;23.354;2023-04-15T13:16:14;94527.50;;;19.00;31.04
7834;BME280;3962;42.696;23.354;2023-04-15T13:18:41;94531.09;;;19.25;30.71
7834;BME280;3962;42.696;23.354;2023-04-15T13:21:08;94528.94;;;19.89;32.96